AirNav   Bose Proflight Series 2 Wireless Aviation Headset
 
 768 users online  

FD32 Gac Waterfront Heliport
Navarre, Florida, USA

GOING TO NAVARRE?


FAA INFORMATION EFFECTIVE 07 NOVEMBER 2019

Location

FAA Identifier: FD32
Lat/Long: 30-24-02.2000N 086-51-37.9000W
30-24.036667N 086-51.631667W
30.4006111,-86.8605278
(estimated)
Elevation: 6 ft. / 2 m (estimated)
From city: 3 miles SE of NAVARRE, FL
Time zone: UTC -6 (UTC -5 during Daylight Saving Time)
Zip code: 32566

Heliport Operations

Heliport use: Private use. Permission required prior to landing
Activation date: 07/2017
Control tower: no
ARTCC: JACKSONVILLE CENTER
FSS: GAINESVILLE FLIGHT SERVICE STATION
Attendance: 
Wind indicator: yes
Segmented circle: no

Heliport Communications

WX ASOS at PNS (17 nm W): PHONE 850-436-4799
WX ASOS at NDZ (20 nm NW): PHONE 850-623-7210

Nearby radio navigation aids

VOR radial/distance  VOR name  Freq  Var
NUNr099/(25.0)SAUFLEY VOR108.8001E
CEWr197/27.2CRESTVIEW VORTAC115.9003E

 
NDB name  Hdg/Dist  Freq  Var  ID
PICKENS100/16.632602WPKZ .--. -.- --..

Heliport Services

Runway Information

Helipad H1

Dimensions: 36 x 36 ft. / 11 x 11 m
Surface: concrete, in excellent condition
Latitude: 30-24.036667N
Longitude: 086-51.631667W
Elevation: 6.0 ft.
Traffic pattern: leftleft

Heliport Ownership and Management from official FAA records

Ownership: Privately-owned
Owner: GAC PROPERTY MANAGEMENT LLC
13 CALLE RIO
MARY ESTHER, FL 32569
Phone 850-685-9801
Manager: GREG BRITTON
13 CALLE RIO
MARY ESTHER, FL 32569
Phone 850-685-9801

Heliport Operational Statistics

Aircraft based on the field: 1
Helicopters: 1
    

Additional Remarks

FOR CD CTC PENSACOLA APCH AT 850-266-6884 OR 850-266-6885.

Instrument Procedures

There are no published instrument procedures at FD32.

Some nearby airports with instrument procedures:

KHRT - Hurlburt Field Airport (9 nm E)
2R4 - Peter Prince Field Airport (16 nm NW)
KPNS - Pensacola International Airport (17 nm W)
KVPS - Eglin Air Force Base/Destin-Fort Walton Beach Airport (18 nm E)
KNDZ - Whiting Field Naval Air Station South (20 nm NW)
 
Loc | Ops | Rwys | IFR | FBO | Links
Com | Nav | Svcs | Stats | Notes
Aerial photo
No photo
 
Airport distance calculator
Flying to Gac Waterfront Heliport? Find the distance to fly.

From to FD32

Sunrise and sunset
Times for 20-Nov-2019
 Local
(UTC-6)
 Zulu
(UTC)
Morning civil twilight05:5311:53
Sunrise06:1912:19
Sunset16:4822:48
Evening civil twilight17:1323:13

Current date and time
Zulu (UTC)  20-Nov-2019 11:33:35
Local (UTC-6)  20-Nov-2019 05:33:35
 
METAR
KHRT 
10nm E 
201056Z AUTO 00000KT 10SM CLR 06/M14 A3010 RMK AO2 SLP195 T00571138 $
KPNS 
17nm W 
201053Z 36003KT 10SM CLR 10/07 A3012 RMK AO2 SLP200 T01000067 $
KVPS 
18nm E 
201056Z AUTO 36006KT 10SM CLR 08/05 A3011 RMK AO2 SLP203 T00830052 $
KNDZ 
20nm NW 
201056Z AUTO 36003KT 10SM CLR 09/M01 A3013 RMK AO2 SLP189 T00941011 $
TAF
KHRT 
10nm E 
201000Z 2010/2116 01006KT 9999 SKC QNH3007INS BECMG 2023/2024 05006KT 9999 FEW250 QNH3017INS TX20/2019Z TN07/2011Z
KPNS 
17nm W 
200520Z 2006/2106 28004KT P6SM SKC FM201500 04006KT P6SM SKC
KVPS 
18nm E 
201000Z 2010/2116 35006KT 9999 SKC QNH3009INS BECMG 2014/2015 05009KT 9999 SKC QNH3018INS BECMG 2115/2116 12009KT 9999 FEW250 QNH3025INS TX20/2019Z TN08/2011Z
NOTAMs
Click for the latest NOTAMs
NOTAMs are issued by the DoD/FAA and will open in a separate window not controlled by AirNav.

 

 
 

Would you like to see your business listed on this page?

 If your business provides an interesting product or service to pilots, flight crews, aircraft, or users of the Gac Waterfront Heliport, you should consider listing it here.  To start the listing process, click on the button below
 
Add a business
 

Other Pages about Gac Waterfront Heliport

Update a link
 
Copyright © AirNav, LLC. All rights reserved. Privacy Policy  Contact